Time;durP1;ratioP1;P1;durP2;ratioP2;P2;SDS_P1;SDS_P2;PMS_P1;PMS_P2;Temp;Humidity;BMP_temperature;BMP_pressure;BME280_temperature;BME280_humidity;BME280_pressure;Samples;Min_cycle;Max_cycle;Signal;HPM_P1;HPM_P2
2022/12/24 00:01:56;;;;;;;12.73;3.57;;;;;;;6.66;78.74;99462.56;10520124;28;20274;-83
2022/12/24 00:07:18;;;;;;;13.60;3.53;;;;;;;6.80;79.38;99471.56;10524140;28;20191;-84
2022/12/24 00:12:40;;;;;;;20.23;3.20;;;;;;;6.60;79.64;99486.28;10518902;28;20210;-83
2022/12/24 00:18:02;;;;;;;13.97;2.97;;;;;;;6.34;80.50;99491.81;10531684;28;20587;-83
2022/12/24 00:23:24;;;;;;;17.07;3.73;;;;;;;6.73;78.77;99504.88;10506438;28;20271;-83
2022/12/24 00:28:47;;;;;;;14.13;3.37;;;;;;;6.64;78.18;99506.88;10518008;28;20207;-83
2022/12/24 00:34:09;;;;;;;19.27;3.97;;;;;;;6.30;79.33;99522.44;10503876;28;20190;-84
2022/12/24 00:39:31;;;;;;;20.40;4.10;;;;;;;6.31;78.12;99526.06;10529874;28;20195;-83
2022/12/24 00:44:53;;;;;;;17.93;4.73;;;;;;;6.68;76.40;99530.22;10515091;28;20202;-83
2022/12/24 00:50:15;;;;;;;20.67;4.00;;;;;;;6.91;76.13;99531.72;10524202;28;20268;-83
2022/12/24 00:55:37;;;;;;;18.47;3.67;;;;;;;6.61;76.62;99535.50;10486569;28;20562;-85
2022/12/24 01:01:00;;;;;;;15.60;3.70;;;;;;;6.62;75.70;99540.78;10496410;28;20292;-82
2022/12/24 01:06:22;;;;;;;14.77;3.57;;;;;;;6.48;75.96;99558.88;10536466;28;20198;-82
2022/12/24 01:11:45;;;;;;;13.20;3.80;;;;;;;6.56;76.16;99556.09;10530935;28;20253;-82
2022/12/24 01:17:07;;;;;;;15.80;3.97;;;;;;;6.73;74.28;99565.66;10530485;28;20222;-82
2022/12/24 01:22:29;;;;;;;14.57;3.87;;;;;;;6.73;73.54;99566.50;10544423;28;20214;-82
2022/12/24 01:27:51;;;;;;;20.20;3.73;;;;;;;6.61;73.91;99574.72;10544962;28;20191;-82
2022/12/24 01:33:13;;;;;;;22.53;3.80;;;;;;;6.56;73.61;99588.84;10544096;28;20186;-83
2022/12/24 01:38:36;;;;;;;18.67;4.27;;;;;;;6.56;73.72;99611.25;10543955;28;20248;-83
2022/12/24 01:43:58;;;;;;;23.40;4.60;;;;;;;6.56;73.96;99608.47;10529331;28;20214;-83
2022/12/24 01:49:20;;;;;;;19.83;4.40;;;;;;;6.68;74.28;99619.84;10518535;28;20202;-84
2022/12/24 01:54:49;;;;;;;22.70;4.23;;;;;;;6.24;76.15;99632.88;10545871;28;20634;-83
2022/12/24 02:00:13;;;;;;;24.03;4.10;;;;;;;6.21;75.51;99627.94;10557097;28;20205;-83
2022/12/24 02:05:45;;;;;;;25.07;4.53;;;;;;;6.47;74.65;99630.03;10556933;28;20586;-83
2022/12/24 02:11:12;;;;;;;19.87;5.03;;;;;;;6.35;75.21;99641.81;10556653;28;20235;-83
2022/12/24 02:16:56;;;;;;;19.40;4.23;;;;;;;6.18;76.47;99670.53;10570652;28;20217;-83
2022/12/24 02:22:45;;;;;;;16.27;4.27;;;;;;;6.30;75.32;99669.94;10556247;28;20298;-83
2022/12/24 02:28:36;;;;;;;17.80;4.53;;;;;;;6.30;74.48;99670.75;10530194;28;20275;-87
2022/12/24 02:34:03;;;;;;;19.80;4.27;;;;;;;5.97;75.75;99686.25;10542511;28;20195;-83
2022/12/24 02:39:35;;;;;;;14.33;3.77;;;;;;;6.31;75.06;99692.00;10519938;28;20251;-83
2022/12/24 02:45:11;;;;;;;21.93;4.23;;;;;;;6.35;73.67;99699.75;10522180;28;20256;-84
2022/12/24 02:50:34;;;;;;;17.30;4.60;;;;;;;6.10;75.28;99702.13;10524634;28;20198;-83
2022/12/24 02:56:09;;;;;;;24.93;5.20;;;;;;;5.84;75.97;99712.31;10518870;28;20311;-84
2022/12/24 03:01:40;;;;;;;17.70;3.90;;;;;;;6.21;74.12;99725.03;10529568;28;20260;-83
2022/12/24 03:07:07;;;;;;;23.70;4.67;;;;;;;6.09;74.71;99714.44;10534983;28;20198;-85
2022/12/24 03:12:42;;;;;;;18.73;4.87;;;;;;;5.91;75.84;99723.88;10536496;28;20590;-83
2022/12/24 03:18:07;;;;;;;20.77;4.67;;;;;;;6.01;75.23;99718.03;10550589;28;20206;-83
2022/12/24 03:23:29;;;;;;;24.93;4.47;;;;;;;5.92;76.62;99731.13;10525795;28;20268;-83
2022/12/24 03:28:51;;;;;;;21.80;5.30;;;;;;;6.18;75.62;99723.72;10524120;28;20767;-86
2022/12/24 03:34:14;;;;;;;19.30;4.43;;;;;;;6.50;74.48;99722.59;10528463;28;20217;-87
2022/12/24 03:39:37;;;;;;;28.43;4.90;;;;;;;6.25;74.91;99726.88;10557346;27;20190;-85
2022/12/24 03:44:59;;;;;;;26.93;5.33;;;;;;;6.10;76.09;99738.47;10512898;28;20218;-85
2022/12/24 03:50:22;;;;;;;25.20;4.23;;;;;;;5.99;77.37;99753.06;10525138;28;20202;-85
2022/12/24 03:55:44;;;;;;;17.30;4.20;;;;;;;6.19;76.18;99747.75;10522595;28;20218;-84
2022/12/24 04:01:06;;;;;;;24.23;4.87;;;;;;;6.14;76.86;99756.28;10544618;28;20268;-83
2022/12/24 04:06:28;;;;;;;21.93;4.10;;;;;;;6.14;76.94;99756.28;10517149;28;20195;-83
2022/12/24 04:11:50;;;;;;;20.63;3.77;;;;;;;6.10;77.08;99754.44;10529154;28;20476;-84
2022/12/24 04:17:12;;;;;;;18.30;3.77;;;;;;;6.21;76.81;99751.06;10517084;28;20295;-84
2022/12/24 04:22:34;;;;;;;18.37;3.80;;;;;;;6.41;76.48;99754.50;10514105;28;20242;-84
2022/12/24 04:27:56;;;;;;;18.77;3.17;;;;;;;6.08;77.93;99753.94;10515493;28;20211;-83
2022/12/24 04:33:18;;;;;;;15.70;2.97;;;;;;;6.05;77.72;99762.97;10484221;28;20287;-84
2022/12/24 04:38:40;;;;;;;17.27;3.90;;;;;;;6.14;77.54;99772.25;10474726;28;20207;-84
2022/12/24 04:44:03;;;;;;;19.43;3.83;;;;;;;6.33;77.42;99772.84;10503218;27;20304;-83
2022/12/24 04:49:25;;;;;;;17.10;3.37;;;;;;;6.17;77.59;99789.22;10470075;28;20199;-83
2022/12/24 04:54:47;;;;;;;16.60;4.30;;;;;;;6.31;78.27;99767.56;10487712;28;20251;-83
2022/12/24 05:00:10;;;;;;;18.83;4.00;;;;;;;6.33;77.59;99784.03;10501982;28;20296;-84
2022/12/24 05:05:32;;;;;;;21.83;4.40;;;;;;;5.88;79.64;99798.06;10528002;28;20271;-85
2022/12/24 05:10:57;;;;;;;20.03;4.80;;;;;;;6.17;79.56;99792.00;10480043;28;20203;-84
2022/12/24 05:16:21;;;;;;;16.13;3.70;;;;;;;6.19;79.35;99794.50;10532498;28;20226;-84
2022/12/24 05:21:43;;;;;;;11.73;3.60;;;;;;;6.33;79.01;99803.63;10512244;28;20214;-83
2022/12/24 05:27:05;;;;;;;15.53;3.70;;;;;;;6.58;78.10;99804.94;10524066;28;20198;-84
2022/12/24 05:32:27;;;;;;;14.27;4.03;;;;;;;6.37;79.01;99806.63;10528536;28;20212;-83
2022/12/24 05:37:49;;;;;;;16.13;4.00;;;;;;;6.07;81.13;99809.06;10528325;28;20198;-84
2022/12/24 05:43:11;;;;;;;12.67;3.70;;;;;;;6.40;79.98;99808.81;10516219;28;20695;-86
2022/12/24 05:48:34;;;;;;;10.00;3.53;;;;;;;6.27;79.88;99816.94;10513284;28;20206;-83
2022/12/24 05:53:56;;;;;;;15.97;3.77;;;;;;;6.20;79.51;99830.56;10526272;28;20610;-84
2022/12/24 05:59:18;;;;;;;16.43;4.20;;;;;;;6.27;80.62;99830.13;10513025;28;20190;-84
2022/12/24 06:04:40;;;;;;;11.93;4.17;;;;;;;6.29;81.30;99828.63;10508820;28;20610;-82
2022/12/24 06:10:03;;;;;;;17.33;3.77;;;;;;;6.42;80.24;99834.50;10524860;28;20507;-84
2022/12/24 06:15:25;;;;;;;15.87;3.77;;;;;;;6.18;80.69;99832.84;10510223;28;20215;-83
2022/12/24 06:20:54;;;;;;;16.23;4.37;;;;;;;6.11;81.08;99840.03;10505325;28;20267;-84
2022/12/24 06:26:19;;;;;;;16.00;3.40;;;;;;;6.60;78.49;99848.28;10520868;28;20206;-84
2022/12/24 06:31:41;;;;;;;17.67;3.67;;;;;;;6.65;78.04;99850.97;10499503;28;20257;-83
2022/12/24 06:37:03;;;;;;;18.23;3.87;;;;;;;6.46;78.90;99875.53;10501671;28;20255;-84
2022/12/24 06:42:26;;;;;;;12.47;4.40;;;;;;;6.23;79.62;99880.28;10511575;28;20218;-81
2022/12/24 06:47:48;;;;;;;15.03;3.53;;;;;;;6.27;80.05;99874.88;10518296;28;20202;-82
2022/12/24 06:53:10;;;;;;;14.47;4.47;;;;;;;6.49;78.43;99882.47;10486619;28;20199;-85
2022/12/24 06:58:33;;;;;;;15.60;3.70;;;;;;;6.43;78.06;99903.34;10510093;28;20276;-83
2022/12/24 07:03:55;;;;;;;17.67;3.40;;;;;;;6.62;77.84;99902.00;10501870;28;20249;-83
2022/12/24 07:09:17;;;;;;;16.87;3.43;;;;;;;5.90;80.94;99901.22;10507663;28;20195;-81
2022/12/24 07:14:39;;;;;;;15.57;3.37;;;;;;;6.30;78.13;99919.00;10500982;28;20584;-81
2022/12/24 07:20:03;;;;;;;20.53;4.33;;;;;;;6.04;80.06;99918.78;10511907;28;20211;-84
2022/12/24 07:25:25;;;;;;;12.00;3.33;;;;;;;6.23;79.23;99925.06;10495269;28;20236;-84
2022/12/24 07:30:47;;;;;;;17.50;3.63;;;;;;;6.11;78.92;99930.41;10484957;28;20280;-83
2022/12/24 07:36:18;;;;;;;15.90;3.87;;;;;;;6.17;79.62;99931.91;10513617;28;20214;-82
2022/12/24 07:41:42;;;;;;;16.07;3.43;;;;;;;6.13;78.50;99936.50;10523107;28;20218;-85
2022/12/24 07:47:04;;;;;;;15.27;3.50;;;;;;;6.24;78.25;99948.28;10524155;28;20198;-92
2022/12/24 07:52:26;;;;;;;16.93;3.67;;;;;;;6.10;78.93;99951.13;10492169;28;20237;-91
2022/12/24 07:57:48;;;;;;;15.07;4.47;;;;;;;6.09;78.15;99946.66;10529830;28;20210;-88
2022/12/24 08:03:18;;;;;;;18.43;4.73;;;;;;;6.03;78.44;99959.09;10494566;28;20622;-85
2022/12/24 08:08:40;;;;;;;16.87;5.30;;;;;;;6.49;76.10;99966.47;10518644;28;20237;-84
2022/12/24 08:14:02;;;;;;;15.03;4.17;;;;;;;6.49;75.70;99980.47;10541426;27;20214;-84
2022/12/24 08:19:52;;;;;;;16.40;4.13;;;;;;;5.97;77.75;99991.13;10546379;28;20198;-91
2022/12/24 08:25:21;;;;;;;17.23;4.70;;;;;;;6.15;77.17;99995.75;10552885;28;20515;-91
2022/12/24 08:31:14;;;;;;;15.70;3.90;;;;;;;6.12;77.70;100001.16;10554790;28;20254;-83
2022/12/24 08:36:55;;;;;;;21.93;4.47;;;;;;;6.46;76.27;100014.69;10372290;28;20204;-89
2022/12/24 08:42:17;;;;;;;14.17;4.03;;;;;;;6.45;76.59;100025.06;10352716;28;20217;-84
2022/12/24 08:48:09;;;;;;;16.00;3.57;;;;;;;6.71;75.35;100033.69;10390419;28;20216;-83
2022/12/24 08:54:04;;;;;;;18.33;4.10;;;;;;;6.76;75.73;100033.56;10407817;28;20189;-82
2022/12/24 09:00:17;;;;;;;24.90;4.60;;;;;;;6.75;75.90;100051.50;10338475;28;20186;-82
2022/12/24 09:06:15;;;;;;;19.00;4.03;;;;;;;6.47;76.48;100049.94;10358665;28;20245;-83
2022/12/24 09:11:37;;;;;;;15.47;4.13;;;;;;;6.99;73.81;100060.44;10342479;28;20228;-84
2022/12/24 09:16:59;;;;;;;18.43;4.03;;;;;;;6.92;74.58;100062.88;10333798;28;20256;-83
2022/12/24 09:22:21;;;;;;;23.20;4.30;;;;;;;6.81;75.27;100083.84;10332951;28;20327;-83
2022/12/24 09:27:43;;;;;;;21.33;3.63;;;;;;;6.32;76.97;100087.47;10522807;28;20614;-84
2022/12/24 09:33:06;;;;;;;21.13;4.93;;;;;;;6.43;76.76;100093.69;10485657;28;20210;-83
2022/12/24 09:38:42;;;;;;;23.93;4.27;;;;;;;6.68;75.85;100109.09;10598325;27;20599;-84
2022/12/24 09:44:20;;;;;;;16.97;4.40;;;;;;;7.02;75.24;100118.66;10599976;27;20193;-84
2022/12/24 09:49:46;;;;;;;16.20;3.90;;;;;;;6.84;75.56;100116.84;10569279;27;20294;-91
2022/12/24 09:55:11;;;;;;;21.13;4.63;;;;;;;6.71;75.50;100128.06;10602677;27;20245;-84
2022/12/24 10:00:36;;;;;;;23.03;4.73;;;;;;;6.86;75.45;100131.34;10567683;27;20223;-85
2022/12/24 10:06:05;;;;;;;26.27;4.63;;;;;;;6.49;76.44;100142.84;10547420;27;20218;-84
2022/12/24 10:11:30;;;;;;;24.37;4.63;;;;;;;6.58;76.88;100147.38;10561665;28;20219;-90
2022/12/24 10:17:01;;;;;;;20.60;4.30;;;;;;;6.48;76.59;100158.00;10559335;28;20609;-89
2022/12/24 10:22:52;;;;;;;23.17;5.07;;;;;;;6.81;75.00;100139.88;10587581;27;20243;-89
2022/12/24 10:28:18;;;;;;;19.40;4.20;;;;;;;7.07;74.24;100147.69;10563291;28;20257;-89
2022/12/24 10:33:42;;;;;;;21.33;4.20;;;;;;;7.09;74.30;100163.03;10570735;28;20591;-90
2022/12/24 10:39:15;;;;;;;16.97;4.43;;;;;;;6.93;74.55;100170.97;10418988;28;20246;-89
2022/12/24 10:44:37;;;;;;;17.07;4.10;;;;;;;7.42;72.93;100155.25;10472025;28;20504;-90
2022/12/24 10:50:05;;;;;;;19.03;4.43;;;;;;;7.96;71.10;100161.72;10438932;28;20248;-84
2022/12/24 10:55:27;;;;;;;18.10;4.27;;;;;;;7.87;71.52;100143.97;10442271;28;20273;-92
2022/12/24 11:00:51;;;;;;;15.87;4.23;;;;;;;7.08;73.49;100143.72;10410942;28;20202;-88
2022/12/24 11:06:19;;;;;;;23.80;4.53;;;;;;;7.14;72.17;100139.69;10412661;28;20246;-94
2022/12/24 11:11:42;;;;;;;19.43;4.53;;;;;;;7.02;73.70;100137.44;10442040;28;20259;-91
2022/12/24 11:17:05;;;;;;;20.30;4.83;;;;;;;7.43;71.89;100150.47;10401712;28;20233;-91
2022/12/24 11:22:30;;;;;;;20.33;4.90;;;;;;;6.55;74.67;100145.22;10367882;28;20209;-90
2022/12/24 11:27:53;;;;;;;21.27;5.67;;;;;;;6.84;74.19;100130.84;10397360;28;20197;-82
2022/12/24 11:33:19;;;;;;;15.30;4.50;;;;;;;7.04;73.30;100137.13;10399819;28;20242;-93
2022/12/24 11:38:57;;;;;;;25.13;5.73;;;;;;;7.27;72.33;100125.59;10429085;28;20567;-96
2022/12/24 11:44:25;;;;;;;23.10;5.73;;;;;;;7.20;72.54;100124.38;10396901;28;20226;-96
2022/12/24 11:49:48;;;;;;;18.63;5.47;;;;;;;7.10;72.61;100147.88;10452359;28;20204;-93
2022/12/24 11:55:38;;;;;;;21.87;5.17;;;;;;;7.16;72.48;100151.41;10435058;28;20224;-92
2022/12/24 12:01:17;;;;;;;19.10;5.37;;;;;;;6.75;73.62;100146.75;10423940;28;20197;-91
2022/12/24 12:06:46;;;;;;;24.13;5.73;;;;;;;7.26;71.97;100151.97;10451612;28;20210;-92
2022/12/24 12:12:14;;;;;;;21.77;5.30;;;;;;;7.02;73.02;100152.28;10407541;28;20249;-89
2022/12/24 12:17:47;;;;;;;21.33;6.27;;;;;;;7.41;71.29;100159.19;10457954;28;20209;-81
2022/12/24 12:23:12;;;;;;;19.93;5.17;;;;;;;7.29;71.35;100161.72;10405637;28;20261;-93
2022/12/24 12:28:41;;;;;;;15.80;4.43;;;;;;;6.93;72.72;100167.38;10453546;28;20327;-90
2022/12/24 12:34:17;;;;;;;21.73;5.73;;;;;;;7.64;70.21;100174.88;10434280;28;20232;-81
2022/12/24 12:39:40;;;;;;;19.80;5.20;;;;;;;7.35;69.94;100180.06;10428316;28;20253;-81
2022/12/24 12:45:20;;;;;;;23.30;5.80;;;;;;;7.75;69.19;100180.22;10406180;28;20226;-81
2022/12/24 12:50:57;;;;;;;23.77;4.90;;;;;;;7.17;70.19;100197.91;10375357;28;20220;-81
2022/12/24 12:56:31;;;;;;;19.23;5.00;;;;;;;7.61;67.48;100203.56;10461761;28;20253;-81
2022/12/24 13:02:36;;;;;;;18.40;5.17;;;;;;;7.14;69.04;100202.16;10424485;27;20228;-81
2022/12/24 13:08:22;;;;;;;15.03;4.17;;;;;;;7.32;68.79;100201.16;10423418;28;20675;-91
2022/12/24 13:14:22;;;;;;;19.70;5.03;;;;;;;7.76;67.20;100204.31;10419967;28;20229;-87
2022/12/24 13:19:47;;;;;;;18.03;4.83;;;;;;;7.19;68.77;100207.63;10463245;28;20251;-82
2022/12/24 13:25:20;;;;;;;15.77;4.70;;;;;;;7.24;69.09;100220.72;10402454;28;20232;-81
2022/12/24 13:30:43;;;;;;;15.97;4.30;;;;;;;7.41;68.95;100220.88;10373175;28;20224;-81
2022/12/24 13:36:09;;;;;;;14.87;3.50;;;;;;;7.57;67.09;100230.63;10408430;28;20261;-83
2022/12/24 13:41:32;;;;;;;16.73;4.80;;;;;;;7.83;66.53;100229.97;10379040;28;20200;-84
2022/12/24 13:47:03;;;;;;;17.47;4.83;;;;;;;7.40;67.67;100233.22;10429637;28;20243;-85
2022/12/24 13:52:29;;;;;;;15.97;4.60;;;;;;;7.40;67.38;100246.41;10382180;28;20200;-86
2022/12/24 13:57:59;;;;;;;13.77;3.80;;;;;;;7.40;66.86;100238.00;10418300;28;20248;-86
2022/12/24 14:03:27;;;;;;;22.30;4.60;;;;;;;7.52;67.45;100241.91;10435210;28;20205;-86
2022/12/24 14:08:52;;;;;;;20.07;4.17;;;;;;;7.61;67.11;100245.63;10432507;28;20243;-87
2022/12/24 14:14:29;;;;;;;18.60;4.63;;;;;;;7.21;68.73;100249.38;10430024;28;20193;-86
2022/12/24 14:19:54;;;;;;;16.27;4.77;;;;;;;7.16;68.49;100250.34;10426863;28;20196;-85
2022/12/24 14:25:18;;;;;;;13.27;4.77;;;;;;;7.19;69.03;100257.28;10413058;28;20197;-87
2022/12/24 14:30:40;;;;;;;20.97;4.83;;;;;;;7.57;66.55;100258.66;10412789;28;20266;-85
2022/12/24 14:36:03;;;;;;;13.70;3.57;;;;;;;7.90;64.96;100267.66;10413477;28;20334;-86
2022/12/24 14:41:33;;;;;;;14.87;4.47;;;;;;;8.08;64.22;100279.81;10419165;28;20215;-80
2022/12/24 14:47:00;;;;;;;17.03;3.70;;;;;;;7.58;63.03;100288.34;10418681;28;20271;-88
2022/12/24 14:52:37;;;;;;;14.30;3.13;;;;;;;7.78;62.74;100291.81;10404108;28;20205;-86
2022/12/24 14:58:24;;;;;;;19.10;3.67;;;;;;;7.42;62.93;100301.03;10406156;28;20306;-87
2022/12/24 15:04:07;;;;;;;11.57;3.70;;;;;;;7.07;64.29;100322.25;10399954;28;20263;-85
2022/12/24 15:09:32;;;;;;;18.03;3.57;;;;;;;7.26;63.44;100314.56;10410716;28;20247;-87
2022/12/24 15:14:54;;;;;;;11.83;3.07;;;;;;;6.77;65.41;100323.75;10395003;28;20206;-90
2022/12/24 15:20:20;;;;;;;14.57;3.67;;;;;;;6.74;64.79;100329.13;10400323;28;20205;-85
2022/12/24 15:25:43;;;;;;;12.03;3.50;;;;;;;6.65;66.27;100341.06;10375613;28;20232;-88
2022/12/24 15:31:21;;;;;;;17.43;3.77;;;;;;;6.73;65.18;100345.09;10390729;28;20178;-84
2022/12/24 15:36:44;;;;;;;16.00;3.97;;;;;;;6.73;65.06;100344.25;10400566;28;20255;-90
2022/12/24 15:42:14;;;;;;;14.30;3.60;;;;;;;7.04;64.48;100355.72;10399689;28;20182;-88
2022/12/24 15:48:06;;;;;;;16.10;4.47;;;;;;;6.71;65.83;100372.56;10390806;28;20205;-90
2022/12/24 15:53:38;;;;;;;14.80;4.43;;;;;;;6.85;64.82;100379.03;10413301;28;20205;-80
2022/12/24 15:59:18;;;;;;;12.27;3.60;;;;;;;6.80;64.97;100378.31;10404963;28;20613;-80
2022/12/24 16:04:40;;;;;;;14.27;4.27;;;;;;;6.96;64.45;100383.28;10348688;28;20225;-80
2022/12/24 16:10:13;;;;;;;17.90;4.20;;;;;;;6.81;64.73;100383.59;10427143;28;20299;-81
2022/12/24 16:15:42;;;;;;;17.00;4.37;;;;;;;6.70;65.10;100384.91;10393356;28;20240;-81
2022/12/24 16:21:06;;;;;;;23.97;5.77;;;;;;;6.60;65.45;100390.72;10357790;28;20566;-80
2022/12/24 16:26:28;;;;;;;19.70;5.60;;;;;;;6.73;65.98;100387.09;10401835;28;20374;-80
2022/12/24 16:31:52;;;;;;;16.00;4.83;;;;;;;6.62;65.62;100388.44;10416667;28;20612;-81
2022/12/24 16:37:14;;;;;;;20.27;5.83;;;;;;;6.81;65.25;100374.34;10401618;28;20264;-81
2022/12/24 16:48:20;;;;;;;16.37;5.67;;;;;;;6.89;64.71;100388.50;10350151;28;20300;-81
2022/12/24 16:53:42;;;;;;;17.80;5.53;;;;;;;6.68;65.78;100409.59;10407078;28;20217;-82
2022/12/24 16:59:05;;;;;;;18.50;5.00;;;;;;;6.45;66.74;100410.56;10385926;28;20282;-87
2022/12/24 17:04:30;;;;;;;17.37;4.90;;;;;;;6.12;67.32;100416.13;10333598;28;20225;-81
2022/12/24 17:09:52;;;;;;;13.60;4.30;;;;;;;5.94;68.40;100419.75;10417454;28;20489;-81
2022/12/24 17:15:14;;;;;;;19.40;5.23;;;;;;;6.20;67.41;100409.84;10401462;28;20202;-81
2022/12/24 17:20:36;;;;;;;18.67;5.00;;;;;;;6.03;68.22;100426.31;10440463;28;20222;-80
2022/12/24 17:25:59;;;;;;;19.20;4.73;;;;;;;5.95;68.78;100427.00;10379457;28;20821;-80
2022/12/24 17:31:22;;;;;;;17.50;4.63;;;;;;;5.65;70.56;100430.25;10403957;28;20228;-81
2022/12/24 17:36:44;;;;;;;15.03;4.47;;;;;;;5.41;71.77;100433.06;10419518;28;20309;-80
2022/12/24 17:42:06;;;;;;;20.83;4.60;;;;;;;5.46;71.25;100433.84;10486457;28;20238;-80
2022/12/24 17:47:28;;;;;;;15.73;4.07;;;;;;;5.42;71.29;100432.78;10457738;28;20194;-80
2022/12/24 17:52:51;;;;;;;18.13;4.60;;;;;;;5.23;72.04;100440.28;10471493;28;20318;-79
2022/12/24 17:58:14;;;;;;;19.20;5.40;;;;;;;4.95;73.42;100441.13;10583157;28;20225;-80
2022/12/24 18:03:36;;;;;;;17.60;4.80;;;;;;;5.08;73.22;100435.66;10480905;28;20515;-79
2022/12/24 18:08:58;;;;;;;16.43;4.97;;;;;;;4.66;74.29;100446.72;10413301;28;20253;-82
2022/12/24 18:14:21;;;;;;;17.37;4.77;;;;;;;5.11;72.98;100445.44;10554541;28;20202;-80
2022/12/24 18:19:43;;;;;;;21.57;5.70;;;;;;;5.39;72.58;100466.06;10552384;28;20209;-86
2022/12/24 18:25:05;;;;;;;20.83;6.23;;;;;;;5.51;72.05;100455.28;10585982;28;20519;-81
2022/12/24 18:30:28;;;;;;;17.63;5.20;;;;;;;5.32;73.33;100455.25;10428592;28;20209;-84
2022/12/24 18:35:50;;;;;;;19.40;5.50;;;;;;;5.31;74.06;100445.22;10424959;28;20559;-81
2022/12/24 18:41:15;;;;;;;25.50;5.77;;;;;;;5.27;74.74;100449.72;10405147;28;20201;-88
2022/12/24 18:46:37;;;;;;;25.23;6.03;;;;;;;5.28;75.48;100448.59;10474787;28;20238;-84
2022/12/24 18:52:02;;;;;;;24.70;5.53;;;;;;;5.34;75.23;100458.59;10427746;28;20274;-81
2022/12/24 18:57:24;;;;;;;25.10;5.83;;;;;;;5.55;74.46;100454.41;10448006;28;20239;-85
2022/12/24 19:02:47;;;;;;;23.73;6.10;;;;;;;5.16;75.68;100451.81;10380335;28;20328;-81
2022/12/24 19:08:09;;;;;;;22.57;6.07;;;;;;;5.18;76.13;100454.31;10450570;28;20204;-82
2022/12/24 19:13:31;;;;;;;25.30;5.50;;;;;;;5.20;77.03;100452.88;10376611;28;20190;-80
2022/12/24 19:18:54;;;;;;;20.63;5.43;;;;;;;5.09;77.23;100454.09;10411574;28;20327;-79
2022/12/24 19:24:16;;;;;;;23.27;5.03;;;;;;;5.00;77.35;100449.44;10425334;28;20262;-86
2022/12/24 19:29:38;;;;;;;18.03;5.23;;;;;;;5.48;74.71;100450.31;10411539;28;20225;-86
2022/12/24 19:35:00;;;;;;;21.10;6.53;;;;;;;4.97;77.57;100450.06;10385985;28;20289;-81
2022/12/24 19:40:22;;;;;;;18.70;6.60;;;;;;;5.35;75.55;100453.84;10396131;28;20306;-81
2022/12/24 19:45:45;;;;;;;24.30;5.97;;;;;;;5.37;74.78;100463.56;10346445;28;20225;-82
2022/12/24 19:51:09;;;;;;;17.40;6.13;;;;;;;4.85;77.78;100462.41;10358325;28;20304;-79
2022/12/24 19:56:31;;;;;;;19.80;6.53;;;;;;;4.79;76.82;100463.63;10432678;28;20270;-81
2022/12/24 20:01:54;;;;;;;25.33;6.63;;;;;;;5.19;75.50;100459.59;10429575;28;20205;-80
2022/12/24 20:07:17;;;;;;;17.07;6.57;;;;;;;5.15;76.40;100466.06;10461351;28;20344;-84
2022/12/24 20:12:39;;;;;;;23.07;6.17;;;;;;;5.03;76.10;100455.28;10427685;28;20221;-81
2022/12/24 20:18:01;;;;;;;19.57;7.20;;;;;;;4.77;78.37;100471.44;10417430;28;20261;-83
2022/12/24 20:23:23;;;;;;;19.10;7.27;;;;;;;4.56;80.20;100464.41;10439982;28;20193;-80
2022/12/24 20:28:45;;;;;;;27.83;7.27;;;;;;;4.80;79.38;100470.03;10554250;28;20246;-80
2022/12/24 20:34:09;;;;;;;27.63;7.27;;;;;;;4.72;78.83;100479.84;10446944;28;20247;-85
2022/12/24 20:39:31;;;;;;;24.13;7.60;;;;;;;4.41;80.62;100468.13;10446923;28;20252;-80
2022/12/24 20:44:53;;;;;;;22.67;7.30;;;;;;;4.48;80.97;100481.75;10413793;28;20209;-79
2022/12/24 20:50:15;;;;;;;21.70;7.33;;;;;;;4.72;80.57;100479.84;10389366;28;20250;-81
2022/12/24 20:55:37;;;;;;;22.90;7.17;;;;;;;5.01;79.27;100479.03;10366927;28;20258;-79
2022/12/24 21:01:07;;;;;;;23.73;7.63;;;;;;;5.05;78.59;100499.69;10351557;28;20241;-81
2022/12/24 21:06:29;;;;;;;22.43;7.20;;;;;;;4.77;80.24;100493.78;10396708;28;20282;-81
2022/12/24 21:17:13;;;;;;;27.47;8.13;;;;;;;4.76;80.60;100492.13;10437081;28;20817;-81
2022/12/24 21:22:35;;;;;;;27.00;11.83;;;;;;;4.97;79.44;100492.78;10361700;28;20250;-82
2022/12/24 21:27:57;;;;;;;47.63;27.40;;;;;;;4.98;79.55;100496.41;10417471;28;20674;-81
2022/12/24 21:33:21;;;;;;;34.00;17.83;;;;;;;4.62;80.90;100491.13;10395963;28;20210;-81
2022/12/24 21:38:43;;;;;;;28.20;10.00;;;;;;;4.91;80.26;100484.72;10411308;28;20208;-80
2022/12/24 21:44:06;;;;;;;24.67;6.60;;;;;;;5.08;79.47;100477.56;10411846;28;20597;-80
2022/12/24 21:55:10;;;;;;;24.23;7.10;;;;;;;5.07;79.49;100480.66;10356985;28;20225;-87
2022/12/24 22:00:33;;;;;;;21.33;6.90;;;;;;;4.97;80.74;100472.41;10348071;28;20721;-86
2022/12/24 22:05:57;;;;;;;22.63;7.27;;;;;;;5.40;77.49;100471.38;10401889;28;20267;-89
2022/12/24 22:17:00;;;;;;;21.33;6.87;;;;;;;4.92;79.97;100444.50;10404831;28;20226;-87
2022/12/24 22:22:23;;;;;;;21.90;6.07;;;;;;;5.08;79.21;100459.97;10406957;28;20249;-88
2022/12/24 22:27:45;;;;;;;22.70;6.80;;;;;;;4.63;80.46;100462.09;10406106;28;20220;-85
2022/12/24 22:33:07;;;;;;;20.23;6.83;;;;;;;4.75;79.80;100444.94;10421906;28;20194;-80
2022/12/24 22:38:29;;;;;;;17.00;6.00;;;;;;;4.64;80.97;100440.59;10410486;28;20233;-80
2022/12/24 22:43:51;;;;;;;21.67;6.47;;;;;;;4.89;78.88;100432.78;10411502;28;20198;-80
2022/12/24 22:49:13;;;;;;;13.83;4.90;;;;;;;4.75;79.60;100428.19;10378630;28;20194;-80
2022/12/24 22:54:35;;;;;;;17.00;5.43;;;;;;;4.53;80.02;100425.88;10441039;28;20254;-88
2022/12/24 22:59:57;;;;;;;19.23;5.30;;;;;;;4.65;79.75;100420.75;10417080;28;20229;-81
2022/12/24 23:05:20;;;;;;;22.70;5.23;;;;;;;4.62;79.78;100426.09;10424543;28;20496;-80
2022/12/24 23:10:42;;;;;;;17.90;6.30;;;;;;;4.74;79.27;100421.78;10399242;28;20198;-81
2022/12/24 23:16:05;;;;;;;19.77;5.80;;;;;;;4.77;79.32;100426.78;10430448;28;20223;-80
2022/12/24 23:21:27;;;;;;;18.60;4.80;;;;;;;4.65;79.44;100423.53;10430474;28;20229;-81
2022/12/24 23:26:50;;;;;;;14.20;4.47;;;;;;;4.80;78.87;100428.97;10424451;28;20205;-80
2022/12/24 23:32:12;;;;;;;11.80;3.87;;;;;;;4.81;78.30;100433.44;10413676;28;20202;-79
2022/12/24 23:37:34;;;;;;;12.80;3.37;;;;;;;4.93;78.43;100423.81;10364264;28;20283;-81
2022/12/24 23:42:56;;;;;;;13.60;3.87;;;;;;;4.59;79.09;100421.94;10390689;28;20606;-80
2022/12/24 23:48:18;;;;;;;17.53;3.80;;;;;;;4.65;79.56;100437.50;10409479;28;20266;-80
2022/12/24 23:53:40;;;;;;;12.37;3.87;;;;;;;4.79;78.44;100432.06;10418460;28;20214;-80
2022/12/24 23:59:02;;;;;;;14.97;3.37;;;;;;;4.64;79.14;100438.63;10409234;28;20274;-80
